N2BC KPIE-KCLT
Flight info
| Callsign | N2BC |
|---|---|
| Flight time | N/A |
| Altitude | 45000 |
| Route | LLRGO1 CAMJO SAV CHECR STOCR4 |
| Aircraft | C750/M-SBDE3FGHRWXY/S |
Departure
| Time | 2026-04-22 22:33 |
|---|---|
| Airport | St. Petersburg Clearwater International Airport (KPIE) |
Arrival
| Time | N/A |
|---|---|
| Airport | Charlotte Douglas International Airport (KCLT) |
| Time | Latitude | Longitude | Altitude | Speed | Heading |
|---|---|---|---|---|---|
| 2026-04-22 22:25 | 27.91785 | -82.69274 | 13 ft | 0 kts | 261° |
| 2026-04-22 22:26 | 27.91785 | -82.69275 | 13 ft | 1 kts | 256° |
| 2026-04-22 22:27 | 27.91779 | -82.69277 | 13 ft | 4 kts | 194° |
| 2026-04-22 22:27 | 27.91792 | -82.69215 | 13 ft | 8 kts | 75° |
| 2026-04-22 22:27 | 27.91800 | -82.69165 | 14 ft | 6 kts | 82° |
| 2026-04-22 22:28 | 27.91695 | -82.69116 | 15 ft | 11 kts | 169° |
| 2026-04-22 22:28 | 27.91611 | -82.69103 | 14 ft | 14 kts | 172° |
| 2026-04-22 22:28 | 27.91505 | -82.69083 | 13 ft | 17 kts | 171° |
| 2026-04-22 22:28 | 27.91384 | -82.69064 | 14 ft | 18 kts | 172° |
| 2026-04-22 22:29 | 27.91260 | -82.69043 | 15 ft | 19 kts | 171° |
| 2026-04-22 22:29 | 27.91114 | -82.69016 | 13 ft | 23 kts | 172° |
| 2026-04-22 22:29 | 27.90947 | -82.68988 | 16 ft | 25 kts | 172° |
| 2026-04-22 22:29 | 27.90774 | -82.68961 | 17 ft | 25 kts | 171° |
| 2026-04-22 22:30 | 27.90597 | -82.68931 | 18 ft | 26 kts | 170° |
| 2026-04-22 22:30 | 27.90410 | -82.68895 | 19 ft | 28 kts | 172° |
| 2026-04-22 22:30 | 27.90207 | -82.68863 | 17 ft | 30 kts | 178° |
| 2026-04-22 22:30 | 27.89989 | -82.68869 | 10 ft | 32 kts | 183° |
| 2026-04-22 22:31 | 27.89814 | -82.68845 | 13 ft | 23 kts | 171° |
| 2026-04-22 22:31 | 27.89696 | -82.68808 | 14 ft | 11 kts | 129° |
| 2026-04-22 22:31 | 27.89693 | -82.68732 | 13 ft | 7 kts | 83° |
| 2026-04-22 22:31 | 27.89693 | -82.68729 | 13 ft | 3 kts | 83° |
| 2026-04-22 22:32 | 27.89722 | -82.68622 | 11 ft | 10 kts | 23° |
| 2026-04-22 22:32 | 27.89737 | -82.68622 | 11 ft | 0 kts | 350° |
| 2026-04-22 22:32 | 27.89813 | -82.68636 | 11 ft | 45 kts | 351° |
| 2026-04-22 22:32 | 27.90496 | -82.68755 | 19 ft | 142 kts | 351° |
| 2026-04-22 22:33 | 27.91612 | -82.68934 | 201 ft | 180 kts | 355° |
| 2026-04-22 22:33 | 27.92945 | -82.69149 | 673 ft | 205 kts | 352° |
| 2026-04-22 22:33 | 27.94468 | -82.69412 | 1096 ft | 237 kts | 353° |
| 2026-04-22 22:33 | 27.96166 | -82.69786 | 1598 ft | 261 kts | 351° |
| 2026-04-22 22:34 | 27.97966 | -82.70214 | 2564 ft | 270 kts | 351° |
| 2026-04-22 22:34 | 27.99869 | -82.70658 | 3010 ft | 287 kts | 351° |
| 2026-04-22 22:34 | 28.01833 | -82.71137 | 2999 ft | 285 kts | 351° |
| 2026-04-22 22:34 | 28.03727 | -82.71605 | 3001 ft | 277 kts | 350° |
| 2026-04-22 22:35 | 28.05620 | -82.72040 | 3516 ft | 274 kts | 351° |
| 2026-04-22 22:35 | 28.07445 | -82.72461 | 4687 ft | 269 kts | 351° |
| 2026-04-22 22:35 | 28.09315 | -82.72468 | 5466 ft | 271 kts | 20° |
| 2026-04-22 22:35 | 28.10920 | -82.71443 | 6410 ft | 267 kts | 37° |
| 2026-04-22 22:36 | 28.12484 | -82.70239 | 7229 ft | 274 kts | 33° |
| 2026-04-22 22:36 | 28.14196 | -82.69264 | 8133 ft | 280 kts | 24° |
| 2026-04-22 22:36 | 28.16026 | -82.68427 | 9072 ft | 285 kts | 22° |
| 2026-04-22 22:36 | 28.17872 | -82.67523 | 9936 ft | 291 kts | 25° |
| 2026-04-22 22:37 | 28.19739 | -82.66542 | 10398 ft | 308 kts | 24° |
| 2026-04-22 22:37 | 28.21783 | -82.65481 | 10514 ft | 335 kts | 23° |
| 2026-04-22 22:37 | 28.24000 | -82.64360 | 10695 ft | 356 kts | 23° |
| 2026-04-22 22:37 | 28.26245 | -82.63220 | 11441 ft | 357 kts | 22° |
| 2026-04-22 22:38 | 28.28529 | -82.62049 | 12137 ft | 360 kts | 22° |
| 2026-04-22 22:38 | 28.30806 | -82.60880 | 12800 ft | 364 kts | 21° |
| 2026-04-22 22:38 | 28.33132 | -82.59692 | 13472 ft | 367 kts | 21° |
| 2026-04-22 22:38 | 28.35488 | -82.58556 | 14049 ft | 369 kts | 15° |
| 2026-04-22 22:39 | 28.37993 | -82.58127 | 14583 ft | 365 kts | 358° |
| 2026-04-22 22:39 | 28.40556 | -82.58170 | 15181 ft | 367 kts | 355° |
| 2026-04-22 22:39 | 28.43104 | -82.58249 | 15744 ft | 371 kts | 355° |
| 2026-04-22 22:39 | 28.45713 | -82.58319 | 16338 ft | 375 kts | 355° |
| 2026-04-22 22:40 | 28.48320 | -82.58377 | 16932 ft | 379 kts | 355° |
| 2026-04-22 22:40 | 28.50984 | -82.58443 | 17535 ft | 383 kts | 355° |
| 2026-04-22 22:40 | 28.53641 | -82.58513 | 18137 ft | 388 kts | 354° |
| 2026-04-22 22:40 | 28.56363 | -82.58582 | 18721 ft | 392 kts | 354° |
| 2026-04-22 22:41 | 28.59105 | -82.58649 | 19325 ft | 394 kts | 354° |
| 2026-04-22 22:41 | 28.61868 | -82.58718 | 19935 ft | 397 kts | 354° |
| 2026-04-22 22:41 | 28.64615 | -82.58789 | 20534 ft | 400 kts | 354° |
| 2026-04-22 22:41 | 28.67422 | -82.58900 | 21130 ft | 402 kts | 351° |
| 2026-04-22 22:42 | 28.70204 | -82.59299 | 21728 ft | 403 kts | 348° |
| 2026-04-22 22:42 | 28.72982 | -82.59695 | 22364 ft | 406 kts | 348° |
| 2026-04-22 22:42 | 28.75803 | -82.60070 | 22983 ft | 410 kts | 348° |
| 2026-04-22 22:42 | 28.78664 | -82.60462 | 23616 ft | 413 kts | 348° |
| 2026-04-22 22:43 | 28.81507 | -82.60868 | 24143 ft | 416 kts | 347° |
| 2026-04-22 22:43 | 28.84407 | -82.61277 | 24640 ft | 419 kts | 347° |
| 2026-04-22 22:43 | 28.87285 | -82.61673 | 25133 ft | 423 kts | 347° |
| 2026-04-22 22:43 | 28.90219 | -82.62081 | 25626 ft | 426 kts | 347° |
| 2026-04-22 22:44 | 28.93173 | -82.62496 | 26125 ft | 429 kts | 347° |
| 2026-04-22 22:44 | 28.96156 | -82.62915 | 26618 ft | 432 kts | 347° |
| 2026-04-22 22:44 | 28.99141 | -82.63331 | 27106 ft | 436 kts | 347° |
| 2026-04-22 22:44 | 29.02164 | -82.63753 | 27593 ft | 439 kts | 347° |
| 2026-04-22 22:45 | 29.05224 | -82.64183 | 28103 ft | 442 kts | 346° |
| 2026-04-22 22:45 | 29.08263 | -82.64609 | 28585 ft | 446 kts | 346° |
| 2026-04-22 22:45 | 29.11359 | -82.65043 | 29065 ft | 449 kts | 346° |
| 2026-04-22 22:45 | 29.14485 | -82.65482 | 29534 ft | 452 kts | 346° |
| 2026-04-22 22:46 | 29.17593 | -82.65918 | 29992 ft | 456 kts | 346° |
| 2026-04-22 22:46 | 29.20758 | -82.66363 | 30407 ft | 459 kts | 346° |
| 2026-04-22 22:46 | 29.23910 | -82.66806 | 30815 ft | 461 kts | 346° |
| 2026-04-22 22:46 | 29.27115 | -82.67256 | 31251 ft | 462 kts | 346° |
| 2026-04-22 22:47 | 29.30273 | -82.67698 | 31906 ft | 458 kts | 345° |
| 2026-04-22 22:47 | 29.33443 | -82.68143 | 32546 ft | 455 kts | 345° |
| 2026-04-22 22:47 | 29.36590 | -82.68589 | 33162 ft | 453 kts | 345° |
| 2026-04-22 22:47 | 29.39693 | -82.69028 | 33741 ft | 452 kts | 345° |
| 2026-04-22 22:48 | 29.42849 | -82.69318 | 34293 ft | 457 kts | 351° |
| 2026-04-22 22:48 | 29.46046 | -82.69283 | 34800 ft | 457 kts | 353° |
| 2026-04-22 22:48 | 29.49230 | -82.69262 | 35282 ft | 456 kts | 352° |
| 2026-04-22 22:48 | 29.52375 | -82.69263 | 35762 ft | 455 kts | 352° |
| 2026-04-22 22:49 | 29.55563 | -82.69245 | 36255 ft | 455 kts | 353° |
| 2026-04-22 22:49 | 29.58704 | -82.69214 | 36747 ft | 454 kts | 353° |
| 2026-04-22 22:49 | 29.61876 | -82.69191 | 37250 ft | 453 kts | 353° |
| 2026-04-22 22:49 | 29.64997 | -82.69179 | 37784 ft | 453 kts | 353° |
| 2026-04-22 22:50 | 29.68168 | -82.69161 | 38312 ft | 452 kts | 353° |
| 2026-04-22 22:50 | 29.71281 | -82.69138 | 38836 ft | 451 kts | 353° |
| 2026-04-22 22:50 | 29.74416 | -82.69116 | 39253 ft | 450 kts | 353° |
| 2026-04-22 22:50 | 29.77555 | -82.69099 | 39641 ft | 450 kts | 353° |
| 2026-04-22 22:51 | 29.80701 | -82.69080 | 40024 ft | 450 kts | 354° |
| 2026-04-22 22:51 | 29.83802 | -82.69060 | 40371 ft | 450 kts | 354° |
| 2026-04-22 22:51 | 29.86944 | -82.69039 | 40736 ft | 450 kts | 354° |
| 2026-04-22 22:51 | 29.90065 | -82.69020 | 41094 ft | 450 kts | 354° |
| 2026-04-22 22:52 | 29.93220 | -82.69001 | 41460 ft | 450 kts | 354° |
| 2026-04-22 22:52 | 29.96321 | -82.68981 | 41785 ft | 450 kts | 354° |
| 2026-04-22 22:52 | 29.99479 | -82.68961 | 42127 ft | 450 kts | 354° |
| 2026-04-22 22:52 | 30.02623 | -82.68941 | 42459 ft | 450 kts | 354° |
| 2026-04-22 22:53 | 30.05731 | -82.68922 | 42780 ft | 450 kts | 354° |
| 2026-04-22 22:53 | 30.08874 | -82.68903 | 43099 ft | 450 kts | 354° |
| 2026-04-22 22:53 | 30.11987 | -82.68883 | 43411 ft | 450 kts | 354° |
| 2026-04-22 22:53 | 30.15127 | -82.68863 | 43719 ft | 450 kts | 354° |
| 2026-04-22 22:54 | 30.18270 | -82.68844 | 44039 ft | 450 kts | 354° |
| 2026-04-22 22:54 | 30.21379 | -82.68825 | 44377 ft | 450 kts | 354° |
| 2026-04-22 22:54 | 30.24530 | -82.68804 | 44783 ft | 449 kts | 354° |
| 2026-04-22 22:54 | 30.27667 | -82.68784 | 45060 ft | 449 kts | 354° |
| 2026-04-22 22:55 | 30.30782 | -82.68767 | 45081 ft | 455 kts | 354° |
| 2026-04-22 22:55 | 30.40451 | -82.68706 | 45116 ft | 472 kts | 354° |
| 2026-04-22 22:56 | 30.47113 | -82.68313 | 45117 ft | 491 kts | 4° |
| 2026-04-22 22:56 | 30.50436 | -82.67337 | 45113 ft | 503 kts | 13° |
| 2026-04-22 22:56 | 30.53720 | -82.65729 | 45114 ft | 515 kts | 22° |
| 2026-04-22 22:57 | 30.56794 | -82.63557 | 45122 ft | 527 kts | 30° |
| 2026-04-22 22:57 | 30.59730 | -82.60929 | 45133 ft | 534 kts | 34° |
| 2026-04-22 22:57 | 30.65579 | -82.55458 | 45143 ft | 541 kts | 32° |
| 2026-04-22 22:58 | 30.71665 | -82.50225 | 45141 ft | 551 kts | 33° |
| 2026-04-22 22:58 | 30.77718 | -82.44669 | 45130 ft | 558 kts | 33° |
| 2026-04-22 22:59 | 30.83948 | -82.39192 | 45151 ft | 564 kts | 33° |
| 2026-04-22 22:59 | 30.90151 | -82.33559 | 45122 ft | 567 kts | 33° |
| 2026-04-22 23:00 | 30.96415 | -82.27976 | 45099 ft | 569 kts | 33° |
| 2026-04-22 23:00 | 31.02669 | -82.22321 | 45092 ft | 570 kts | 33° |
| 2026-04-22 23:01 | 31.08980 | -82.16647 | 45062 ft | 571 kts | 33° |
| 2026-04-22 23:01 | 31.15231 | -82.10995 | 45063 ft | 571 kts | 33° |
| 2026-04-22 23:02 | 31.21549 | -82.05283 | 45034 ft | 571 kts | 33° |
| 2026-04-22 23:02 | 31.27840 | -81.99582 | 45070 ft | 572 kts | 33° |
| 2026-04-22 23:03 | 31.34094 | -81.93905 | 45056 ft | 571 kts | 33° |
| 2026-04-22 23:03 | 31.40396 | -81.88176 | 45053 ft | 571 kts | 33° |
| 2026-04-22 23:04 | 31.46646 | -81.82482 | 45047 ft | 571 kts | 33° |
| 2026-04-22 23:04 | 31.52899 | -81.76778 | 45047 ft | 570 kts | 33° |
| 2026-04-22 23:05 | 31.59140 | -81.71072 | 45055 ft | 570 kts | 33° |
| 2026-04-22 23:05 | 31.65394 | -81.65348 | 45059 ft | 569 kts | 33° |
| 2026-04-22 23:06 | 31.71618 | -81.59637 | 45032 ft | 570 kts | 33° |
| 2026-04-22 23:06 | 31.77865 | -81.53898 | 45020 ft | 570 kts | 33° |
| 2026-04-22 23:07 | 31.84106 | -81.48153 | 45037 ft | 569 kts | 33° |
| 2026-04-22 23:07 | 31.90348 | -81.42398 | 45031 ft | 568 kts | 33° |
| 2026-04-22 23:08 | 31.96558 | -81.36662 | 45023 ft | 568 kts | 33° |
| 2026-04-22 23:08 | 32.02751 | -81.30931 | 45018 ft | 567 kts | 33° |
| 2026-04-22 23:09 | 32.08944 | -81.25190 | 45042 ft | 567 kts | 33° |
| 2026-04-22 23:09 | 32.15208 | -81.19589 | 45015 ft | 561 kts | 27° |
| 2026-04-22 23:10 | 32.22031 | -81.15181 | 45025 ft | 556 kts | 22° |
| 2026-04-22 23:10 | 32.27917 | -81.11409 | 45051 ft | 556 kts | 24° |